sensor_id;sensor_type;location;lat;lon;timestamp;temperature;humidity
66343;DHT22;53144;51.524;5.080;2022-09-20T00:00:44;10.84;97.08
66343;DHT22;53144;51.524;5.080;2022-09-20T00:03:13;10.77;97.15
66343;DHT22;53144;51.524;5.080;2022-09-20T00:05:42;10.72;97.15
66343;DHT22;53144;51.524;5.080;2022-09-20T00:08:13;10.75;97.26
66343;DHT22;53144;51.524;5.080;2022-09-20T00:10:39;10.71;97.37
66343;DHT22;53144;51.524;5.080;2022-09-20T00:13:08;10.60;97.18
66343;DHT22;53144;51.524;5.080;2022-09-20T00:15:43;10.58;97.42
66343;DHT22;53144;51.524;5.080;2022-09-20T00:18:12;10.58;97.48
66343;DHT22;53144;51.524;5.080;2022-09-20T00:20:45;10.60;97.48
66343;DHT22;53144;51.524;5.080;2022-09-20T00:23:11;10.50;97.57
66343;DHT22;53144;51.524;5.080;2022-09-20T00:25:36;10.46;98.00
66343;DHT22;53144;51.524;5.080;2022-09-20T00:28:02;10.47;97.97
66343;DHT22;53144;51.524;5.080;2022-09-20T00:30:27;10.51;98.01
66343;DHT22;53144;51.524;5.080;2022-09-20T00:32:54;10.53;98.12
66343;DHT22;53144;51.524;5.080;2022-09-20T00:35:19;10.58;97.95
66343;DHT22;53144;51.524;5.080;2022-09-20T00:37:44;10.61;97.90
66343;DHT22;53144;51.524;5.080;2022-09-20T00:40:14;10.67;97.96
66343;DHT22;53144;51.524;5.080;2022-09-20T00:42:43;10.78;98.10
66343;DHT22;53144;51.524;5.080;2022-09-20T00:45:22;10.74;97.79
66343;DHT22;53144;51.524;5.080;2022-09-20T00:48:09;10.69;97.70
66343;DHT22;53144;51.524;5.080;2022-09-20T00:55:32;10.74;97.69
66343;DHT22;53144;51.524;5.080;2022-09-20T00:57:59;10.69;97.68
66343;DHT22;53144;51.524;5.080;2022-09-20T01:00:24;10.74;97.60
66343;DHT22;53144;51.524;5.080;2022-09-20T01:02:54;10.74;97.67
66343;DHT22;53144;51.524;5.080;2022-09-20T01:05:21;10.74;97.68
66343;DHT22;53144;51.524;5.080;2022-09-20T01:07:47;10.72;97.80
66343;DHT22;53144;51.524;5.080;2022-09-20T01:10:14;10.78;98.02
66343;DHT22;53144;51.524;5.080;2022-09-20T01:12:42;10.78;97.99
66343;DHT22;53144;51.524;5.080;2022-09-20T01:15:10;10.78;97.92
66343;DHT22;53144;51.524;5.080;2022-09-20T01:17:42;10.82;98.06
66343;DHT22;53144;51.524;5.080;2022-09-20T01:20:16;10.89;98.02
66343;DHT22;53144;51.524;5.080;2022-09-20T01:28:07;11.01;97.93
66343;DHT22;53144;51.524;5.080;2022-09-20T01:30:40;11.02;97.83
66343;DHT22;53144;51.524;5.080;2022-09-20T01:36:12;11.04;97.80
66343;DHT22;53144;51.524;5.080;2022-09-20T01:38:58;11.06;97.77
66343;DHT22;53144;51.524;5.080;2022-09-20T01:41:32;11.06;97.93
66343;DHT22;53144;51.524;5.080;2022-09-20T01:47:19;11.16;98.08
66343;DHT22;53144;51.524;5.080;2022-09-20T02:01:18;11.20;98.16
66343;DHT22;53144;51.524;5.080;2022-09-20T02:09:39;11.29;97.80
66343;DHT22;53144;51.524;5.080;2022-09-20T02:12:22;11.40;97.84
66343;DHT22;53144;51.524;5.080;2022-09-20T02:20:49;11.22;97.72
66343;DHT22;53144;51.524;5.080;2022-09-20T02:34:41;11.22;98.44
66343;DHT22;53144;51.524;5.080;2022-09-20T02:37:26;11.22;98.69
66343;DHT22;53144;51.524;5.080;2022-09-20T02:42:34;11.29;98.58
66343;DHT22;53144;51.524;5.080;2022-09-20T02:45:08;11.30;98.39
66343;DHT22;53144;51.524;5.080;2022-09-20T02:47:38;11.36;98.26
66343;DHT22;53144;51.524;5.080;2022-09-20T03:07:00;11.09;98.76
66343;DHT22;53144;51.524;5.080;2022-09-20T03:09:34;11.04;98.58
66343;DHT22;53144;51.524;5.080;2022-09-20T03:12:31;11.01;98.64
66343;DHT22;53144;51.524;5.080;2022-09-20T03:18:10;10.99;98.80
66343;DHT22;53144;51.524;5.080;2022-09-20T03:21:05;10.95;99.07
66343;DHT22;53144;51.524;5.080;2022-09-20T03:24:05;10.94;98.96
66343;DHT22;53144;51.524;5.080;2022-09-20T03:27:06;10.94;99.05
66343;DHT22;53144;51.524;5.080;2022-09-20T03:35:20;11.04;99.24
66343;DHT22;53144;51.524;5.080;2022-09-20T03:37:52;11.02;99.17
66343;DHT22;53144;51.524;5.080;2022-09-20T03:46:07;11.15;99.13
66343;DHT22;53144;51.524;5.080;2022-09-20T03:51:51;11.14;98.82
66343;DHT22;53144;51.524;5.080;2022-09-20T04:02:27;11.04;98.68
66343;DHT22;53144;51.524;5.080;2022-09-20T04:05:04;11.02;98.89
66343;DHT22;53144;51.524;5.080;2022-09-20T04:07:40;10.96;98.87
66343;DHT22;53144;51.524;5.080;2022-09-20T04:21:59;10.72;98.71
66343;DHT22;53144;51.524;5.080;2022-09-20T04:24:53;10.67;98.77
66343;DHT22;53144;51.524;5.080;2022-09-20T04:32:30;10.58;98.95
66343;DHT22;53144;51.524;5.080;2022-09-20T04:38:19;10.46;99.08
66343;DHT22;53144;51.524;5.080;2022-09-20T04:41:15;10.48;99.31
66343;DHT22;53144;51.524;5.080;2022-09-20T04:49:16;10.36;99.19
66343;DHT22;53144;51.524;5.080;2022-09-20T05:00:05;10.13;99.45
66343;DHT22;53144;51.524;5.080;2022-09-20T05:02:53;10.20;99.62
66343;DHT22;53144;51.524;5.080;2022-09-20T05:05:57;10.32;99.64
66343;DHT22;53144;51.524;5.080;2022-09-20T05:16:47;10.48;99.51
66343;DHT22;53144;51.524;5.080;2022-09-20T05:22:30;10.61;99.44
66343;DHT22;53144;51.524;5.080;2022-09-20T05:25:19;10.58;99.23
66343;DHT22;53144;51.524;5.080;2022-09-20T05:30:20;10.64;99.33
66343;DHT22;53144;51.524;5.080;2022-09-20T05:33:00;10.69;99.22
66343;DHT22;53144;51.524;5.080;2022-09-20T05:35:33;10.68;99.23
66343;DHT22;53144;51.524;5.080;2022-09-20T05:41:03;10.69;99.42
66343;DHT22;53144;51.524;5.080;2022-09-20T05:46:33;10.69;99.70
66343;DHT22;53144;51.524;5.080;2022-09-20T05:49:28;10.74;99.81
66343;DHT22;53144;51.524;5.080;2022-09-20T06:00:22;10.86;99.56
66343;DHT22;53144;51.524;5.080;2022-09-20T06:03:14;10.91;99.45
66343;DHT22;53144;51.524;5.080;2022-09-20T06:05:54;10.94;99.48
66343;DHT22;53144;51.524;5.080;2022-09-20T06:17:25;10.96;99.20
66343;DHT22;53144;51.524;5.080;2022-09-20T06:20:28;10.98;99.07
66343;DHT22;53144;51.524;5.080;2022-09-20T06:22:57;10.96;99.10
66343;DHT22;53144;51.524;5.080;2022-09-20T06:25:38;11.06;99.10
66343;DHT22;53144;51.524;5.080;2022-09-20T06:28:16;11.19;99.07
66343;DHT22;53144;51.524;5.080;2022-09-20T06:30:47;11.20;98.71
66343;DHT22;53144;51.524;5.080;2022-09-20T06:33:17;11.26;98.44
66343;DHT22;53144;51.524;5.080;2022-09-20T06:39:10;11.32;97.95
66343;DHT22;53144;51.524;5.080;2022-09-20T06:41:58;11.32;97.80
66343;DHT22;53144;51.524;5.080;2022-09-20T06:44:24;11.36;98.04
66343;DHT22;53144;51.524;5.080;2022-09-20T06:46:49;11.35;97.97
66343;DHT22;53144;51.524;5.080;2022-09-20T06:49:18;11.35;97.85
66343;DHT22;53144;51.524;5.080;2022-09-20T06:51:43;11.42;98.01
66343;DHT22;53144;51.524;5.080;2022-09-20T06:54:14;11.40;97.59
66343;DHT22;53144;51.524;5.080;2022-09-20T06:56:42;11.37;97.21
66343;DHT22;53144;51.524;5.080;2022-09-20T06:59:12;11.56;97.36
66343;DHT22;53144;51.524;5.080;2022-09-20T07:01:40;11.60;96.98
66343;DHT22;53144;51.524;5.080;2022-09-20T07:04:05;11.73;97.00
66343;DHT22;53144;51.524;5.080;2022-09-20T07:06:31;11.80;96.78
66343;DHT22;53144;51.524;5.080;2022-09-20T07:08:57;11.85;96.35
66343;DHT22;53144;51.524;5.080;2022-09-20T07:11:22;11.93;96.56
66343;DHT22;53144;51.524;5.080;2022-09-20T07:13:52;11.97;96.27
66343;DHT22;53144;51.524;5.080;2022-09-20T07:16:18;12.06;95.69
66343;DHT22;53144;51.524;5.080;2022-09-20T07:18:44;12.18;95.61
66343;DHT22;53144;51.524;5.080;2022-09-20T07:21:17;12.29;94.49
66343;DHT22;53144;51.524;5.080;2022-09-20T07:23:43;12.43;95.24
66343;DHT22;53144;51.524;5.080;2022-09-20T07:26:33;12.49;95.14
66343;DHT22;53144;51.524;5.080;2022-09-20T07:28:59;12.63;95.17
66343;DHT22;53144;51.524;5.080;2022-09-20T07:31:25;12.72;93.36
66343;DHT22;53144;51.524;5.080;2022-09-20T07:33:51;12.76;93.17
66343;DHT22;53144;51.524;5.080;2022-09-20T07:36:17;12.86;93.23
66343;DHT22;53144;51.524;5.080;2022-09-20T07:38:50;12.84;91.30
66343;DHT22;53144;51.524;5.080;2022-09-20T07:41:17;12.87;89.55
66343;DHT22;53144;51.524;5.080;2022-09-20T07:43:44;12.91;90.50
66343;DHT22;53144;51.524;5.080;2022-09-20T07:46:10;12.97;91.99
66343;DHT22;53144;51.524;5.080;2022-09-20T07:48:40;13.04;91.90
66343;DHT22;53144;51.524;5.080;2022-09-20T07:51:08;13.01;88.70
66343;DHT22;53144;51.524;5.080;2022-09-20T07:53:34;13.20;91.03
66343;DHT22;53144;51.524;5.080;2022-09-20T07:58:25;13.25;87.98
66343;DHT22;53144;51.524;5.080;2022-09-20T08:00:55;13.41;88.87
66343;DHT22;53144;51.524;5.080;2022-09-20T08:03:21;13.47;90.78
66343;DHT22;53144;51.524;5.080;2022-09-20T08:05:47;13.51;89.03
66343;DHT22;53144;51.524;5.080;2022-09-20T08:08:13;13.58;89.08
66343;DHT22;53144;51.524;5.080;2022-09-20T08:10:41;13.62;89.32
66343;DHT22;53144;51.524;5.080;2022-09-20T08:13:07;13.73;88.19
66343;DHT22;53144;51.524;5.080;2022-09-20T08:15:32;13.48;86.53
66343;DHT22;53144;51.524;5.080;2022-09-20T08:17:58;13.44;87.09
66343;DHT22;53144;51.524;5.080;2022-09-20T08:20:23;13.52;88.42
66343;DHT22;53144;51.524;5.080;2022-09-20T08:22:49;13.65;88.60
66343;DHT22;53144;51.524;5.080;2022-09-20T08:25:14;13.66;87.25
66343;DHT22;53144;51.524;5.080;2022-09-20T08:27:42;13.59;87.70
66343;DHT22;53144;51.524;5.080;2022-09-20T08:30:07;13.54;87.89
66343;DHT22;53144;51.524;5.080;2022-09-20T08:32:33;13.31;88.01
66343;DHT22;53144;51.524;5.080;2022-09-20T08:34:58;13.32;88.01
66343;DHT22;53144;51.524;5.080;2022-09-20T08:37:23;13.25;87.85
66343;DHT22;53144;51.524;5.080;2022-09-20T08:39:49;13.31;89.34
66343;DHT22;53144;51.524;5.080;2022-09-20T08:42:26;13.31;87.04
66343;DHT22;53144;51.524;5.080;2022-09-20T08:44:57;13.38;88.24
66343;DHT22;53144;51.524;5.080;2022-09-20T08:47:27;13.45;86.72
66343;DHT22;53144;51.524;5.080;2022-09-20T08:49:53;13.72;82.24
66343;DHT22;53144;51.524;5.080;2022-09-20T08:52:31;13.72;84.30
66343;DHT22;53144;51.524;5.080;2022-09-20T08:54:57;13.69;84.30
66343;DHT22;53144;51.524;5.080;2022-09-20T08:57:26;13.82;85.65
66343;DHT22;53144;51.524;5.080;2022-09-20T08:59:53;13.83;84.42
66343;DHT22;53144;51.524;5.080;2022-09-20T09:02:19;13.80;83.11
66343;DHT22;53144;51.524;5.080;2022-09-20T09:04:46;13.72;78.34
66343;DHT22;53144;51.524;5.080;2022-09-20T09:07:16;13.87;80.29
66343;DHT22;53144;51.524;5.080;2022-09-20T09:09:45;13.87;82.54
66343;DHT22;53144;51.524;5.080;2022-09-20T09:12:28;14.05;80.47
66343;DHT22;53144;51.524;5.080;2022-09-20T09:14:58;14.05;79.11
66343;DHT22;53144;51.524;5.080;2022-09-20T09:17:27;14.10;80.61
66343;DHT22;53144;51.524;5.080;2022-09-20T09:19:55;14.17;80.10
66343;DHT22;53144;51.524;5.080;2022-09-20T09:22:28;14.24;80.78
66343;DHT22;53144;51.524;5.080;2022-09-20T09:25:26;14.44;78.60
66343;DHT22;53144;51.524;5.080;2022-09-20T09:33:31;14.60;74.79
66343;DHT22;53144;51.524;5.080;2022-09-20T09:36:14;14.71;73.80
66343;DHT22;53144;51.524;5.080;2022-09-20T09:38:43;14.99;75.70
66343;DHT22;53144;51.524;5.080;2022-09-20T09:41:31;15.00;75.25
66343;DHT22;53144;51.524;5.080;2022-09-20T09:44:26;15.25;77.49
66343;DHT22;53144;51.524;5.080;2022-09-20T09:46:53;15.13;73.66
66343;DHT22;53144;51.524;5.080;2022-09-20T09:49:26;15.12;74.94
66343;DHT22;53144;51.524;5.080;2022-09-20T09:52:12;15.02;73.46
66343;DHT22;53144;51.524;5.080;2022-09-20T09:54:45;15.40;71.91
66343;DHT22;53144;51.524;5.080;2022-09-20T10:00:13;15.74;72.81
66343;DHT22;53144;51.524;5.080;2022-09-20T10:20:25;15.09;71.98
66343;DHT22;53144;51.524;5.080;2022-09-20T10:25:53;14.95;70.96
66343;DHT22;53144;51.524;5.080;2022-09-20T10:34:23;14.74;78.87
66343;DHT22;53144;51.524;5.080;2022-09-20T10:36:59;14.72;72.87
66343;DHT22;53144;51.524;5.080;2022-09-20T10:39:38;14.71;73.28
66343;DHT22;53144;51.524;5.080;2022-09-20T10:42:17;14.69;73.49
66343;DHT22;53144;51.524;5.080;2022-09-20T10:54:17;16.22;69.96
66343;DHT22;53144;51.524;5.080;2022-09-20T10:56:57;16.38;70.79
66343;DHT22;53144;51.524;5.080;2022-09-20T10:59:55;16.12;70.35
66343;DHT22;53144;51.524;5.080;2022-09-20T11:02:48;15.94;72.73
66343;DHT22;53144;51.524;5.080;2022-09-20T11:05:22;16.08;71.04
66343;DHT22;53144;51.524;5.080;2022-09-20T11:10:27;17.13;68.47
66343;DHT22;53144;51.524;5.080;2022-09-20T11:12:57;17.27;66.06
66343;DHT22;53144;51.524;5.080;2022-09-20T11:15:44;18.33;63.40
66343;DHT22;53144;51.524;5.080;2022-09-20T11:18:20;18.45;64.22
66343;DHT22;53144;51.524;5.080;2022-09-20T11:23:43;18.95;60.60
66343;DHT22;53144;51.524;5.080;2022-09-20T11:26:26;20.36;56.23
66343;DHT22;53144;51.524;5.080;2022-09-20T11:29:00;21.18;55.93
66343;DHT22;53144;51.524;5.080;2022-09-20T11:31:42;20.69;55.98
66343;DHT22;53144;51.524;5.080;2022-09-20T11:34:31;20.43;54.11
66343;DHT22;53144;51.524;5.080;2022-09-20T11:36:59;19.39;57.55
66343;DHT22;53144;51.524;5.080;2022-09-20T11:42:02;17.35;59.95
66343;DHT22;53144;51.524;5.080;2022-09-20T11:44:30;16.53;62.90
66343;DHT22;53144;51.524;5.080;2022-09-20T11:47:30;16.53;65.93
66343;DHT22;53144;51.524;5.080;2022-09-20T11:55:38;16.59;67.25
66343;DHT22;53144;51.524;5.080;2022-09-20T11:58:17;16.55;66.66
66343;DHT22;53144;51.524;5.080;2022-09-20T12:00:47;16.29;67.14
66343;DHT22;53144;51.524;5.080;2022-09-20T12:03:33;16.22;69.00
66343;DHT22;53144;51.524;5.080;2022-09-20T12:06:05;16.18;69.99
66343;DHT22;53144;51.524;5.080;2022-09-20T12:08:33;16.21;69.34
66343;DHT22;53144;51.524;5.080;2022-09-20T12:11:12;16.24;69.55
66343;DHT22;53144;51.524;5.080;2022-09-20T12:13:40;16.28;71.48
66343;DHT22;53144;51.524;5.080;2022-09-20T12:16:34;16.43;68.17
66343;DHT22;53144;51.524;5.080;2022-09-20T12:19:05;16.39;66.56
66343;DHT22;53144;51.524;5.080;2022-09-20T12:24:31;16.15;69.60
66343;DHT22;53144;51.524;5.080;2022-09-20T12:30:15;16.09;68.01
66343;DHT22;53144;51.524;5.080;2022-09-20T12:32:44;15.94;67.14
66343;DHT22;53144;51.524;5.080;2022-09-20T12:42:32;15.67;70.78
66343;DHT22;53144;51.524;5.080;2022-09-20T12:45:05;15.57;71.49
66343;DHT22;53144;51.524;5.080;2022-09-20T12:47:52;15.33;73.15
66343;DHT22;53144;51.524;5.080;2022-09-20T12:50:20;15.36;72.50
66343;DHT22;53144;51.524;5.080;2022-09-20T12:53:11;15.35;72.35
66343;DHT22;53144;51.524;5.080;2022-09-20T12:55:39;15.37;72.51
66343;DHT22;53144;51.524;5.080;2022-09-20T13:00:47;15.13;74.78
66343;DHT22;53144;51.524;5.080;2022-09-20T13:11:30;15.16;75.39
66343;DHT22;53144;51.524;5.080;2022-09-20T13:17:17;15.12;73.40
66343;DHT22;53144;51.524;5.080;2022-09-20T13:19:46;15.19;74.15
66343;DHT22;53144;51.524;5.080;2022-09-20T13:22:22;15.29;73.93
66343;DHT22;53144;51.524;5.080;2022-09-20T13:24:51;15.18;71.75
66343;DHT22;53144;51.524;5.080;2022-09-20T13:27:38;15.25;72.58
66343;DHT22;53144;51.524;5.080;2022-09-20T13:30:16;15.22;75.20
66343;DHT22;53144;51.524;5.080;2022-09-20T13:32:42;15.29;73.20
66343;DHT22;53144;51.524;5.080;2022-09-20T13:35:20;15.58;74.31
66343;DHT22;53144;51.524;5.080;2022-09-20T13:38:04;16.57;67.40
66343;DHT22;53144;51.524;5.080;2022-09-20T13:40:44;17.82;64.38
66343;DHT22;53144;51.524;5.080;2022-09-20T13:43:32;18.17;64.07
66343;DHT22;53144;51.524;5.080;2022-09-20T13:46:09;17.69;63.63
66343;DHT22;53144;51.524;5.080;2022-09-20T13:48:36;17.89;61.63
66343;DHT22;53144;51.524;5.080;2022-09-20T13:51:02;18.11;63.03
66343;DHT22;53144;51.524;5.080;2022-09-20T13:53:29;17.08;64.72
66343;DHT22;53144;51.524;5.080;2022-09-20T13:55:57;16.94;64.90
66343;DHT22;53144;51.524;5.080;2022-09-20T13:58:29;16.67;64.95
66343;DHT22;53144;51.524;5.080;2022-09-20T14:01:00;16.74;66.76
66343;DHT22;53144;51.524;5.080;2022-09-20T14:03:28;16.45;64.01
66343;DHT22;53144;51.524;5.080;2022-09-20T14:06:01;16.18;66.18
66343;DHT22;53144;51.524;5.080;2022-09-20T14:08:42;16.06;68.13
66343;DHT22;53144;51.524;5.080;2022-09-20T14:11:18;15.84;67.32
66343;DHT22;53144;51.524;5.080;2022-09-20T14:13:56;15.81;69.54
66343;DHT22;53144;51.524;5.080;2022-09-20T14:16:29;15.68;69.66
66343;DHT22;53144;51.524;5.080;2022-09-20T14:18:56;15.80;69.24
66343;DHT22;53144;51.524;5.080;2022-09-20T14:21:24;15.73;69.41
66343;DHT22;53144;51.524;5.080;2022-09-20T14:24:26;15.84;70.32
66343;DHT22;53144;51.524;5.080;2022-09-20T14:27:03;15.95;69.49
66343;DHT22;53144;51.524;5.080;2022-09-20T14:29:38;15.95;68.17
66343;DHT22;53144;51.524;5.080;2022-09-20T14:34:36;16.02;68.14
66343;DHT22;53144;51.524;5.080;2022-09-20T14:37:12;16.08;68.68
66343;DHT22;53144;51.524;5.080;2022-09-20T14:40:22;16.04;66.17
66343;DHT22;53144;51.524;5.080;2022-09-20T14:42:42;15.98;69.52
66343;DHT22;53144;51.524;5.080;2022-09-20T14:45:35;15.97;66.51
66343;DHT22;53144;51.524;5.080;2022-09-20T14:50:44;16.00;66.62
66343;DHT22;53144;51.524;5.080;2022-09-20T14:55:36;16.12;65.24
66343;DHT22;53144;51.524;5.080;2022-09-20T14:58:10;16.02;66.01
66343;DHT22;53144;51.524;5.080;2022-09-20T15:00:49;16.24;65.14
66343;DHT22;53144;51.524;5.080;2022-09-20T15:03:22;16.30;65.62
66343;DHT22;53144;51.524;5.080;2022-09-20T15:05:51;16.33;65.43
66343;DHT22;53144;51.524;5.080;2022-09-20T15:08:17;16.32;63.32
66343;DHT22;53144;51.524;5.080;2022-09-20T15:10:44;16.42;66.61
66343;DHT22;53144;51.524;5.080;2022-09-20T15:13:12;16.43;64.99
66343;DHT22;53144;51.524;5.080;2022-09-20T15:15:37;16.41;64.92
66343;DHT22;53144;51.524;5.080;2022-09-20T15:18:14;16.42;65.54
66343;DHT22;53144;51.524;5.080;2022-09-20T15:20:42;16.28;67.87
66343;DHT22;53144;51.524;5.080;2022-09-20T15:23:10;16.18;66.39
66343;DHT22;53144;51.524;5.080;2022-09-20T15:25:35;16.16;65.47
66343;DHT22;53144;51.524;5.080;2022-09-20T15:28:13;16.00;67.24
66343;DHT22;53144;51.524;5.080;2022-09-20T15:30:43;15.80;66.79
66343;DHT22;53144;51.524;5.080;2022-09-20T15:33:09;15.81;67.35
66343;DHT22;53144;51.524;5.080;2022-09-20T15:35:36;15.88;68.38
66343;DHT22;53144;51.524;5.080;2022-09-20T15:38:04;15.94;68.46
66343;DHT22;53144;51.524;5.080;2022-09-20T15:40:31;15.87;66.86
66343;DHT22;53144;51.524;5.080;2022-09-20T15:42:56;15.77;66.62
66343;DHT22;53144;51.524;5.080;2022-09-20T15:45:24;15.74;66.09
66343;DHT22;53144;51.524;5.080;2022-09-20T15:47:51;15.81;67.27
66343;DHT22;53144;51.524;5.080;2022-09-20T15:50:20;15.84;67.17
66343;DHT22;53144;51.524;5.080;2022-09-20T15:52:52;15.84;68.09
66343;DHT22;53144;51.524;5.080;2022-09-20T15:55:18;15.85;65.82
66343;DHT22;53144;51.524;5.080;2022-09-20T15:57:44;15.85;65.44
66343;DHT22;53144;51.524;5.080;2022-09-20T16:00:09;15.81;66.61
66343;DHT22;53144;51.524;5.080;2022-09-20T16:02:35;15.75;66.77
66343;DHT22;53144;51.524;5.080;2022-09-20T16:05:01;15.75;63.98
66343;DHT22;53144;51.524;5.080;2022-09-20T16:07:27;15.73;64.93
66343;DHT22;53144;51.524;5.080;2022-09-20T16:09:53;15.68;61.96
66343;DHT22;53144;51.524;5.080;2022-09-20T16:12:23;15.66;64.17
66343;DHT22;53144;51.524;5.080;2022-09-20T16:14:49;15.67;64.21
66343;DHT22;53144;51.524;5.080;2022-09-20T16:17:16;15.61;62.17
66343;DHT22;53144;51.524;5.080;2022-09-20T16:19:42;15.53;64.43
66343;DHT22;53144;51.524;5.080;2022-09-20T16:22:10;15.53;62.58
66343;DHT22;53144;51.524;5.080;2022-09-20T16:24:40;15.49;63.55
66343;DHT22;53144;51.524;5.080;2022-09-20T16:27:06;15.43;63.84
66343;DHT22;53144;51.524;5.080;2022-09-20T16:29:32;15.39;63.04
66343;DHT22;53144;51.524;5.080;2022-09-20T16:31:59;15.35;64.61
66343;DHT22;53144;51.524;5.080;2022-09-20T16:34:32;15.37;63.93
66343;DHT22;53144;51.524;5.080;2022-09-20T16:37:08;15.32;67.17
66343;DHT22;53144;51.524;5.080;2022-09-20T16:39:34;15.09;68.37
66343;DHT22;53144;51.524;5.080;2022-09-20T16:42:01;15.08;66.55
66343;DHT22;53144;51.524;5.080;2022-09-20T16:44:32;15.00;67.72
66343;DHT22;53144;51.524;5.080;2022-09-20T16:46:58;14.92;69.65
66343;DHT22;53144;51.524;5.080;2022-09-20T16:49:23;14.85;69.81
66343;DHT22;53144;51.524;5.080;2022-09-20T16:51:51;14.89;67.75
66343;DHT22;53144;51.524;5.080;2022-09-20T16:54:17;14.77;70.52
66343;DHT22;53144;51.524;5.080;2022-09-20T16:56:46;14.72;71.21
66343;DHT22;53144;51.524;5.080;2022-09-20T16:59:13;14.82;67.95
66343;DHT22;53144;51.524;5.080;2022-09-20T17:01:40;14.79;68.12
66343;DHT22;53144;51.524;5.080;2022-09-20T17:04:07;14.64;72.32
66343;DHT22;53144;51.524;5.080;2022-09-20T17:06:34;14.44;74.21
66343;DHT22;53144;51.524;5.080;2022-09-20T17:09:00;14.14;77.04
66343;DHT22;53144;51.524;5.080;2022-09-20T17:11:26;14.03;77.07
66343;DHT22;53144;51.524;5.080;2022-09-20T17:13:53;13.90;79.00
66343;DHT22;53144;51.524;5.080;2022-09-20T17:16:21;13.75;78.81
66343;DHT22;53144;51.524;5.080;2022-09-20T17:18:55;13.71;77.93
66343;DHT22;53144;51.524;5.080;2022-09-20T17:21:21;13.61;78.55
66343;DHT22;53144;51.524;5.080;2022-09-20T17:23:47;13.40;80.46
66343;DHT22;53144;51.524;5.080;2022-09-20T17:26:15;13.32;80.81
66343;DHT22;53144;51.524;5.080;2022-09-20T17:28:46;13.25;81.39
66343;DHT22;53144;51.524;5.080;2022-09-20T17:31:17;13.12;81.65
66343;DHT22;53144;51.524;5.080;2022-09-20T17:33:42;13.17;80.59
66343;DHT22;53144;51.524;5.080;2022-09-20T17:36:12;13.04;81.95
66343;DHT22;53144;51.524;5.080;2022-09-20T17:38:43;12.96;83.51
66343;DHT22;53144;51.524;5.080;2022-09-20T17:41:15;13.01;80.27
66343;DHT22;53144;51.524;5.080;2022-09-20T17:43:43;12.87;82.79
66343;DHT22;53144;51.524;5.080;2022-09-20T17:46:39;12.77;84.00
66343;DHT22;53144;51.524;5.080;2022-09-20T17:49:06;12.75;84.70
66343;DHT22;53144;51.524;5.080;2022-09-20T17:51:41;12.60;85.26
66343;DHT22;53144;51.524;5.080;2022-09-20T17:54:08;12.59;83.62
66343;DHT22;53144;51.524;5.080;2022-09-20T17:56:38;12.60;84.10
66343;DHT22;53144;51.524;5.080;2022-09-20T17:59:04;12.57;85.26
66343;DHT22;53144;51.524;5.080;2022-09-20T18:01:30;12.48;85.94
66343;DHT22;53144;51.524;5.080;2022-09-20T18:03:58;12.50;85.83
66343;DHT22;53144;51.524;5.080;2022-09-20T18:06:26;12.53;85.79
66343;DHT22;53144;51.524;5.080;2022-09-20T18:09:00;12.45;85.27
66343;DHT22;53144;51.524;5.080;2022-09-20T18:11:29;12.28;87.75
66343;DHT22;53144;51.524;5.080;2022-09-20T18:13:59;12.43;82.77
66343;DHT22;53144;51.524;5.080;2022-09-20T18:16:25;12.69;83.34
66343;DHT22;53144;51.524;5.080;2022-09-20T18:18:51;12.59;82.03
66343;DHT22;53144;51.524;5.080;2022-09-20T18:21:22;12.42;85.02
66343;DHT22;53144;51.524;5.080;2022-09-20T18:23:48;12.29;85.10
66343;DHT22;53144;51.524;5.080;2022-09-20T18:26:16;12.25;84.80
66343;DHT22;53144;51.524;5.080;2022-09-20T18:29:05;12.10;86.09
66343;DHT22;53144;51.524;5.080;2022-09-20T18:31:39;12.05;85.00
66343;DHT22;53144;51.524;5.080;2022-09-20T18:34:17;11.98;86.17
66343;DHT22;53144;51.524;5.080;2022-09-20T18:36:50;12.04;85.56
66343;DHT22;53144;51.524;5.080;2022-09-20T18:39:23;11.90;86.07
66343;DHT22;53144;51.524;5.080;2022-09-20T18:41:49;11.83;86.18
66343;DHT22;53144;51.524;5.080;2022-09-20T18:44:18;11.74;86.45
66343;DHT22;53144;51.524;5.080;2022-09-20T18:46:44;11.73;85.60
66343;DHT22;53144;51.524;5.080;2022-09-20T18:49:11;11.69;87.41
66343;DHT22;53144;51.524;5.080;2022-09-20T18:51:41;11.67;87.33
66343;DHT22;53144;51.524;5.080;2022-09-20T18:54:08;11.73;87.33
66343;DHT22;53144;51.524;5.080;2022-09-20T18:56:39;11.75;88.14
66343;DHT22;53144;51.524;5.080;2022-09-20T18:59:07;11.70;88.86
66343;DHT22;53144;51.524;5.080;2022-09-20T19:20:45;11.90;90.35
66343;DHT22;53144;51.524;5.080;2022-09-20T19:26:23;11.91;90.30
66343;DHT22;53144;51.524;5.080;2022-09-20T19:28:51;11.91;90.44
66343;DHT22;53144;51.524;5.080;2022-09-20T19:31:22;11.91;90.55
66343;DHT22;53144;51.524;5.080;2022-09-20T19:33:48;11.90;90.41
66343;DHT22;53144;51.524;5.080;2022-09-20T19:36:14;11.87;91.10
66343;DHT22;53144;51.524;5.080;2022-09-20T19:38:46;11.87;91.14
66343;DHT22;53144;51.524;5.080;2022-09-20T19:50:00;11.66;90.49
66343;DHT22;53144;51.524;5.080;2022-09-20T19:52:27;11.62;90.55
66343;DHT22;53144;51.524;5.080;2022-09-20T19:54:53;11.46;91.06
66343;DHT22;53144;51.524;5.080;2022-09-20T19:57:21;11.42;91.43
66343;DHT22;53144;51.524;5.080;2022-09-20T19:59:48;11.35;91.93
66343;DHT22;53144;51.524;5.080;2022-09-20T20:02:15;11.36;91.76
66343;DHT22;53144;51.524;5.080;2022-09-20T20:04:41;11.37;91.79
66343;DHT22;53144;51.524;5.080;2022-09-20T20:10:01;11.40;92.08
66343;DHT22;53144;51.524;5.080;2022-09-20T20:12:37;11.46;92.01
66343;DHT22;53144;51.524;5.080;2022-09-20T20:15:20;11.47;92.29
66343;DHT22;53144;51.524;5.080;2022-09-20T20:20:49;11.53;92.93
66343;DHT22;53144;51.524;5.080;2022-09-20T20:26:21;11.44;92.82
66343;DHT22;53144;51.524;5.080;2022-09-20T20:28:48;11.44;92.41
66343;DHT22;53144;51.524;5.080;2022-09-20T20:31:15;11.36;92.54
66343;DHT22;53144;51.524;5.080;2022-09-20T20:33:41;11.27;92.53
66343;DHT22;53144;51.524;5.080;2022-09-20T20:36:07;11.23;92.59
66343;DHT22;53144;51.524;5.080;2022-09-20T20:38:33;11.19;93.12
66343;DHT22;53144;51.524;5.080;2022-09-20T20:43:29;11.16;93.24
66343;DHT22;53144;51.524;5.080;2022-09-20T20:45:55;11.15;93.39
66343;DHT22;53144;51.524;5.080;2022-09-20T20:48:20;11.19;93.48
66343;DHT22;53144;51.524;5.080;2022-09-20T20:50:45;11.18;93.63
66343;DHT22;53144;51.524;5.080;2022-09-20T20:53:11;11.25;93.43
66343;DHT22;53144;51.524;5.080;2022-09-20T20:55:37;11.23;93.92
66343;DHT22;53144;51.524;5.080;2022-09-20T20:58:02;11.19;94.10
66343;DHT22;53144;51.524;5.080;2022-09-20T21:00:28;11.22;94.16
66343;DHT22;53144;51.524;5.080;2022-09-20T21:02:58;11.20;94.30
66343;DHT22;53144;51.524;5.080;2022-09-20T21:05:25;11.23;94.09
66343;DHT22;53144;51.524;5.080;2022-09-20T21:07:50;11.26;93.91